Time;durP1;ratioP1;P1;durP2;ratioP2;P2;SDS_P1;SDS_P2;PMS_P1;PMS_P2;Temp;Humidity;BMP_temperature;BMP_pressure;BME280_temperature;BME280_humidity;BME280_pressure;Samples;Min_cycle;Max_cycle;Signal;HPM_P1;HPM_P2
2022/01/27 00:00:42;;;;;;;44.72;24.85;;;103.30;1945.60;;;;;;5074236;28;20047;-64
2022/01/27 00:03:26;;;;;;;40.45;23.38;;;128.00;1971.20;;;;;;5074399;28;20390;-62
2022/01/27 00:05:55;;;;;;;47.17;24.65;;;128.00;1996.80;;;;;;5074126;28;20111;-63
2022/01/27 00:08:28;;;;;;;37.50;23.13;;;128.00;2022.40;;;;;;5074290;28;20032;-64
2022/01/27 00:10:59;;;;;;;40.85;22.33;;;128.10;1971.20;;;;;;5074062;28;20510;-64
2022/01/27 00:13:43;;;;;;;37.55;23.38;;;128.10;1945.60;;;;;;5074287;28;20025;-63
2022/01/27 00:16:15;;;;;;;39.92;24.95;;;128.10;1971.20;;;;;;5074258;28;20049;-62
2022/01/27 00:18:42;;;;;;;43.28;24.17;;;128.00;1971.20;;;;;;5074093;28;20103;-62
2022/01/27 00:21:08;;;;;;;46.15;25.23;;;128.00;1971.20;;;;;;5073943;28;20069;-64
2022/01/27 00:23:34;;;;;;;44.80;24.27;;;128.10;1971.20;;;;;;5073958;28;20036;-62
2022/01/27 00:26:00;;;;;;;44.50;24.42;;;128.10;1945.60;;;;;;5073865;28;20025;-64
2022/01/27 00:28:27;;;;;;;47.00;25.35;;;128.10;1971.20;;;;;;5074005;28;20106;-62
2022/01/27 00:30:53;;;;;;;45.35;26.38;;;128.20;1971.20;;;;;;5073361;28;20040;-62
2022/01/27 00:33:19;;;;;;;45.75;25.45;;;128.20;1945.60;;;;;;5073984;28;20035;-62
2022/01/27 00:35:45;;;;;;;41.63;24.55;;;128.30;1971.20;;;;;;5073426;28;20031;-62
2022/01/27 00:38:11;;;;;;;52.78;26.42;;;128.30;1920.00;;;;;;5074076;28;20482;-62
2022/01/27 00:40:37;;;;;;;45.22;26.58;;;128.30;1945.60;;;;;;5073935;28;20034;-63
2022/01/27 00:43:02;;;;;;;46.08;27.23;;;128.40;1945.60;;;;;;5074087;28;20104;-62
2022/01/27 00:45:30;;;;;;;47.42;27.17;;;128.20;1945.60;;;;;;5073230;28;20066;-64
2022/01/27 00:47:57;;;;;;;49.72;27.80;;;128.20;1971.20;;;;;;5073576;28;20037;-64
2022/01/27 00:50:23;;;;;;;50.80;28.58;;;128.10;1945.60;;;;;;5073526;28;20037;-64
2022/01/27 00:52:52;;;;;;;55.53;29.05;;;128.00;1971.20;;;;;;5073693;28;20086;-62
2022/01/27 00:55:19;;;;;;;46.90;28.13;;;128.10;1971.20;;;;;;5073698;28;20029;-62
2022/01/27 01:00:21;;;;;;;49.20;26.60;;;128.10;1971.20;;;;;;5073368;28;20056;-62
2022/01/27 01:03:00;;;;;;;50.60;27.23;;;128.10;1945.60;;;;;;5073482;28;20024;-61
2022/01/27 01:05:52;;;;;;;47.80;25.85;;;128.10;1971.20;;;;;;5073464;28;20028;-63
2022/01/27 01:14:19;;;;;;;46.17;27.13;;;128.00;1971.20;;;;;;5073364;28;20028;-64
2022/01/27 01:15:57;;;;;;;46.67;27.58;;;128.10;1971.20;;;;;;5073070;28;20037;-62
2022/01/27 01:21:19;;;;;;;43.08;26.23;;;128.10;1945.60;;;;;;5073399;28;20025;-62
2022/01/27 01:29:53;;;;;;;43.97;25.33;;;128.10;1971.20;;;;;;5073454;28;20551;-61
2022/01/27 01:32:36;;;;;;;47.97;26.40;;;128.10;1945.60;;;;;;5073007;28;20377;-61
2022/01/27 01:35:05;;;;;;;42.25;24.60;;;128.10;1971.20;;;;;;5073049;28;20101;-64
2022/01/27 01:37:37;;;;;;;44.67;25.83;;;128.20;1945.60;;;;;;5073120;28;20192;-61
2022/01/27 01:40:07;;;;;;;43.65;25.20;;;128.10;1971.20;;;;;;5073106;28;20036;-61
2022/01/27 01:42:33;;;;;;;45.72;25.55;;;128.10;1971.20;;;;;;5071999;28;20051;-63
2022/01/27 01:45:11;;;;;;;40.17;24.73;;;128.20;1945.60;;;;;;5073099;28;20024;-63
2022/01/27 01:47:37;;;;;;;39.75;24.13;;;128.20;1945.60;;;;;;5073283;28;20104;-64
2022/01/27 01:50:05;;;;;;;43.53;26.20;;;128.30;1894.40;;;;;;5073180;28;20036;-64
2022/01/27 01:52:31;;;;;;;42.63;25.23;;;128.10;1971.20;;;;;;5073103;28;20497;-63
2022/01/27 01:54:58;;;;;;;42.40;26.20;;;128.20;1945.60;;;;;;5072939;28;20029;-64
2022/01/27 01:57:23;;;;;;;43.65;25.60;;;128.20;1945.60;;;;;;5072636;28;20103;-63
2022/01/27 01:59:50;;;;;;;46.42;25.83;;;128.20;1971.20;;;;;;5072829;28;20531;-61
2022/01/27 02:02:16;;;;;;;43.75;25.35;;;128.20;1920.00;;;;;;5073022;28;20032;-62
2022/01/27 02:04:43;;;;;;;41.03;25.52;;;128.10;1971.20;;;;;;5073190;28;20481;-61
2022/01/27 02:07:26;;;;;;;49.22;27.42;;;128.20;1945.60;;;;;;5072940;28;20039;-63
2022/01/27 02:18:01;;;;;;;47.20;27.58;;;128.10;1971.20;;;;;;5076730;28;20034;-61
2022/01/27 02:20:32;;;;;;;48.83;28.65;;;128.00;1945.60;;;;;;5076296;28;20573;-61
2022/01/27 02:22:58;;;;;;;47.70;27.00;;;103.30;1945.60;;;;;;5076200;28;20021;-61
2022/01/27 02:25:24;;;;;;;46.30;26.60;;;128.00;1920.00;;;;;;5076174;28;20028;-61
2022/01/27 02:27:57;;;;;;;46.42;27.35;;;103.30;1945.60;;;;;;5076341;28;20021;-63
2022/01/27 02:30:24;;;;;;;48.20;27.35;;;103.30;1945.60;;;;;;5076053;28;20053;-63
2022/01/27 02:32:52;;;;;;;50.50;28.95;;;103.10;1945.60;;;;;;5076249;28;20017;-59
2022/01/27 02:35:21;;;;;;;45.10;26.58;;;103.10;1971.20;;;;;;5076107;28;20036;-60
2022/01/27 02:37:47;;;;;;;49.83;28.75;;;103.20;1920.00;;;;;;5076096;28;20031;-59
2022/01/27 02:40:25;;;;;;;48.67;28.17;;;103.20;1971.20;;;;;;5076214;28;20024;-59
2022/01/27 02:42:52;;;;;;;50.65;28.70;;;103.20;1945.60;;;;;;5075989;28;20036;-59
2022/01/27 02:45:41;;;;;;;51.25;29.05;;;103.10;1971.20;;;;;;5075978;28;20035;-60
2022/01/27 02:48:07;;;;;;;47.50;28.27;;;103.20;1971.20;;;;;;5075957;28;20108;-59
2022/01/27 02:50:32;;;;;;;50.25;29.27;;;103.10;1945.60;;;;;;5075597;28;20115;-59
2022/01/27 02:52:58;;;;;;;46.58;28.30;;;103.10;1996.80;;;;;;5075973;28;20025;-59
2022/01/27 02:55:24;;;;;;;47.47;27.30;;;103.20;1920.00;;;;;;5075683;28;20104;-59
2022/01/27 02:57:50;;;;;;;50.10;30.45;;;103.10;1971.20;;;;;;5075905;28;20095;-60
2022/01/27 03:00:16;;;;;;;53.20;28.70;;;103.10;1996.80;;;;;;5075315;28;20056;-59
2022/01/27 03:02:43;;;;;;;49.70;28.98;;;103.00;1945.60;;;;;;5075342;28;20059;-60
2022/01/27 03:05:09;;;;;;;48.40;27.77;;;103.00;1996.80;;;;;;5075662;28;20029;-60
2022/01/27 03:07:34;;;;;;;49.00;28.38;;;103.00;1971.20;;;;;;5075545;28;20032;-60
2022/01/27 03:10:00;;;;;;;48.33;28.00;;;103.00;1971.20;;;;;;5075371;28;20051;-59
2022/01/27 03:12:28;;;;;;;49.55;29.63;;;103.10;1996.80;;;;;;5075396;28;20104;-60
2022/01/27 03:14:54;;;;;;;52.40;30.25;;;103.00;1971.20;;;;;;5075446;28;20042;-59
2022/01/27 03:17:20;;;;;;;47.53;28.27;;;103.00;1996.80;;;;;;5075296;28;20103;-59
2022/01/27 03:19:46;;;;;;;49.40;29.70;;;103.00;1971.20;;;;;;5075179;28;20028;-59
2022/01/27 03:22:11;;;;;;;48.95;29.73;;;103.00;1996.80;;;;;;5075325;28;20073;-59
2022/01/27 03:24:38;;;;;;;52.00;29.52;;;103.00;1996.80;;;;;;5075332;28;20059;-60
2022/01/27 03:27:17;;;;;;;50.60;30.17;;;103.00;1971.20;;;;;;5075051;28;20028;-59
2022/01/27 03:29:43;;;;;;;48.13;30.25;;;103.00;1996.80;;;;;;5074880;28;20062;-59
2022/01/27 03:32:09;;;;;;;52.50;29.98;;;103.00;1971.20;;;;;;5075041;28;20028;-59
2022/01/27 03:34:35;;;;;;;47.40;29.65;;;103.00;1996.80;;;;;;5074933;28;20035;-59
2022/01/27 03:37:01;;;;;;;47.45;28.23;;;103.00;2022.40;;;;;;5075043;28;20036;-59
2022/01/27 03:39:27;;;;;;;48.13;27.20;;;103.00;1971.20;;;;;;5074824;28;20577;-59
2022/01/27 03:41:55;;;;;;;44.95;26.92;;;103.00;1996.80;;;;;;5075122;28;20028;-59
2022/01/27 03:44:22;;;;;;;45.80;26.45;;;103.10;1996.80;;;;;;5074794;28;20485;-59
2022/01/27 03:46:50;;;;;;;46.85;26.45;;;103.10;1971.20;;;;;;5074630;28;20485;-59
2022/01/27 03:49:16;;;;;;;43.80;26.02;;;103.20;1996.80;;;;;;5074942;28;20047;-59
2022/01/27 03:51:45;;;;;;;46.22;27.13;;;103.10;1945.60;;;;;;5074356;28;20362;-59
2022/01/27 03:54:10;;;;;;;45.78;27.33;;;103.10;1971.20;;;;;;5074638;28;20020;-59
2022/01/27 03:56:36;;;;;;;47.97;27.08;;;103.10;1971.20;;;;;;5074398;28;20127;-60
2022/01/27 03:59:03;;;;;;;43.83;26.02;;;103.10;1945.60;;;;;;5074223;28;20433;-59
2022/01/27 04:01:30;;;;;;;47.40;27.42;;;103.10;1971.20;;;;;;5074494;28;20032;-59
2022/01/27 04:03:58;;;;;;;40.95;25.48;;;103.10;1945.60;;;;;;5074446;28;20036;-59
2022/01/27 04:06:32;;;;;;;46.65;27.48;;;103.00;1971.20;;;;;;5074410;28;20035;-59
2022/01/27 04:08:59;;;;;;;39.92;25.27;;;103.10;1996.80;;;;;;5074274;28;20123;-59
2022/01/27 04:11:24;;;;;;;46.00;25.48;;;103.00;1945.60;;;;;;5074313;28;20497;-61
2022/01/27 04:13:50;;;;;;;52.70;27.00;;;103.10;1971.20;;;;;;5074328;28;20048;-59
2022/01/27 04:16:16;;;;;;;48.15;26.02;;;103.10;1971.20;;;;;;5074161;28;20032;-59
2022/01/27 04:18:41;;;;;;;44.90;24.30;;;103.10;1971.20;;;;;;5074227;28;20095;-60
2022/01/27 04:21:07;;;;;;;49.58;25.55;;;103.10;1996.80;;;;;;5074386;28;20028;-59
2022/01/27 04:23:33;;;;;;;53.28;26.20;;;103.10;1971.20;;;;;;5074121;28;20091;-59
2022/01/27 04:25:58;;;;;;;49.88;25.38;;;103.10;1971.20;;;;;;5074017;28;20020;-59
2022/01/27 04:28:29;;;;;;;41.42;25.38;;;103.20;1971.20;;;;;;5074025;28;20116;-60
2022/01/27 04:30:56;;;;;;;45.55;24.92;;;103.10;1945.60;;;;;;5073788;28;20032;-59
2022/01/27 04:33:25;;;;;;;41.47;24.00;;;103.10;1945.60;;;;;;5073445;28;20062;-59
2022/01/27 04:35:54;;;;;;;41.28;23.52;;;103.10;1971.20;;;;;;5073774;28;20028;-59
2022/01/27 04:41:14;;;;;;;39.65;23.55;;;103.10;1945.60;;;;;;5073834;28;20021;-59
2022/01/27 04:43:58;;;;;;;42.47;24.17;;;103.20;1945.60;;;;;;5073895;28;20036;-59
2022/01/27 04:49:06;;;;;;;48.08;25.73;;;103.10;1971.20;;;;;;5073730;28;20060;-59
2022/01/27 04:51:32;;;;;;;49.95;27.42;;;103.10;1945.60;;;;;;5073923;28;20044;-59
2022/01/27 04:54:14;;;;;;;45.50;26.10;;;103.10;1920.00;;;;;;5073734;28;20028;-60
2022/01/27 04:56:41;;;;;;;42.90;25.17;;;103.10;1945.60;;;;;;5073690;28;20043;-59
2022/01/27 04:59:18;;;;;;;44.00;24.27;;;103.10;1920.00;;;;;;5073571;28;20411;-59
2022/01/27 05:01:52;;;;;;;44.42;25.40;;;103.10;1868.80;;;;;;5073402;28;20032;-59
2022/01/27 05:04:20;;;;;;;43.47;24.95;;;103.20;1945.60;;;;;;5073399;28;20039;-59
2022/01/27 05:06:49;;;;;;;41.25;24.00;;;103.20;1894.40;;;;;;5073624;28;20033;-59
2022/01/27 05:09:15;;;;;;;43.75;24.55;;;103.20;1868.80;;;;;;5073542;28;20031;-59
2022/01/27 05:11:49;;;;;;;39.00;23.20;;;103.20;1868.80;;;;;;5073531;28;20040;-59
2022/01/27 05:14:33;;;;;;;40.70;23.20;;;103.20;1894.40;;;;;;5073553;28;20044;-59
2022/01/27 05:16:58;;;;;;;37.70;22.55;;;103.20;1920.00;;;;;;5073259;28;20029;-59
2022/01/27 05:19:24;;;;;;;42.50;24.00;;;103.20;1920.00;;;;;;5073417;28;20103;-59
2022/01/27 05:21:50;;;;;;;40.78;22.63;;;103.30;1894.40;;;;;;5073512;28;20474;-59
2022/01/27 05:24:16;;;;;;;39.08;22.77;;;103.30;1920.00;;;;;;5073492;28;20052;-59
2022/01/27 05:26:42;;;;;;;42.78;23.55;;;103.30;1920.00;;;;;;5073419;28;20496;-59
2022/01/27 05:29:09;;;;;;;41.60;23.52;;;128.00;1920.00;;;;;;5073108;28;20056;-59
2022/01/27 05:31:36;;;;;;;41.63;24.23;;;128.00;1920.00;;;;;;5073327;28;20036;-59
2022/01/27 05:34:02;;;;;;;54.17;27.15;;;103.30;1920.00;;;;;;5073299;28;20115;-60
2022/01/27 05:36:34;;;;;;;42.08;25.17;;;128.00;1945.60;;;;;;5072774;28;20021;-59
2022/01/27 05:39:01;;;;;;;42.70;23.45;;;128.10;1920.00;;;;;;5072198;28;20040;-59
2022/01/27 05:41:26;;;;;;;42.67;24.73;;;128.00;1920.00;;;;;;5073497;28;20056;-59
2022/01/27 05:43:52;;;;;;;50.45;27.75;;;128.00;1920.00;;;;;;5073375;28;20059;-59
2022/01/27 05:46:18;;;;;;;49.10;27.98;;;128.00;1894.40;;;;;;5077082;28;20474;-59
2022/01/27 05:48:44;;;;;;;48.60;27.70;;;128.00;1920.00;;;;;;5077497;28;20028;-59
2022/01/27 05:51:12;;;;;;;52.17;31.30;;;128.00;1920.00;;;;;;5077009;28;20386;-59
2022/01/27 05:53:37;;;;;;;55.55;31.40;;;128.00;1894.40;;;;;;5076994;28;20040;-59
2022/01/27 05:56:03;;;;;;;64.93;39.17;;;128.00;1945.60;;;;;;5076604;28;20390;-59
2022/01/27 05:58:29;;;;;;;72.88;46.20;;;128.00;1945.60;;;;;;5076099;28;20046;-59
2022/01/27 06:00:55;;;;;;;63.90;40.55;;;128.00;1996.80;;;;;;5076448;28;20485;-59
2022/01/27 06:03:21;;;;;;;67.57;38.92;;;128.10;2073.60;;;;;;5076781;28;20107;-59
2022/01/27 06:05:46;;;;;;;67.75;37.92;;;128.20;2022.40;;;;;;5076529;28;20466;-59
2022/01/27 06:08:12;;;;;;;70.82;38.75;;;128.20;1971.20;;;;;;5076715;28;20032;-59
2022/01/27 06:10:38;;;;;;;66.00;39.40;;;128.20;1920.00;;;;;;5076552;28;20398;-59
2022/01/27 06:13:04;;;;;;;66.07;39.00;;;128.20;1945.60;;;;;;5076257;28;20082;-59
2022/01/27 06:15:30;;;;;;;56.70;33.70;;;128.20;1920.00;;;;;;5076248;28;20025;-59
2022/01/27 06:17:58;;;;;;;59.90;34.03;;;128.20;1945.60;;;;;;5076010;28;20055;-59
2022/01/27 06:20:24;;;;;;;54.20;30.27;;;128.20;1945.60;;;;;;5076435;28;20043;-59
2022/01/27 06:22:54;;;;;;;59.75;34.45;;;128.20;1945.60;;;;;;5076136;28;20025;-59
2022/01/27 06:25:20;;;;;;;68.15;41.22;;;128.20;1945.60;;;;;;5076298;28;20062;-60
2022/01/27 06:27:45;;;;;;;78.07;50.72;;;128.20;1945.60;;;;;;5076140;28;20425;-59
2022/01/27 06:30:12;;;;;;;88.53;53.47;;;128.20;1945.60;;;;;;5076207;28;20043;-59
2022/01/27 06:32:38;;;;;;;121.68;55.97;;;128.20;1945.60;;;;;;5076298;28;20100;-59
2022/01/27 06:35:05;;;;;;;130.55;61.78;;;128.30;1920.00;;;;;;5075630;28;20056;-59
2022/01/27 06:37:31;;;;;;;140.05;60.33;;;128.40;1945.60;;;;;;5075899;28;20020;-58
2022/01/27 06:39:57;;;;;;;128.48;53.22;;;128.30;1920.00;;;;;;5075856;28;20025;-59
2022/01/27 06:42:23;;;;;;;96.47;47.28;;;128.40;1920.00;;;;;;5066480;28;20364;-58
2022/01/27 06:44:49;;;;;;;68.72;37.83;;;128.40;1945.60;;;;;;5064645;28;20110;-58
2022/01/27 06:47:15;;;;;;;67.70;35.08;;;128.40;1894.40;;;;;;5066151;28;20017;-58
2022/01/27 06:49:40;;;;;;;74.68;34.25;;;128.40;1920.00;;;;;;5064484;28;20029;-58
2022/01/27 06:52:07;;;;;;;76.32;32.78;;;128.40;1920.00;;;;;;5069983;28;20020;-58
2022/01/27 06:54:33;;;;;;;84.30;33.30;;;128.50;1920.00;;;;;;5075615;28;20414;-59
2022/01/27 06:56:59;;;;;;;77.53;30.73;;;128.50;1920.00;;;;;;5062081;28;20029;-59
2022/01/27 06:59:25;;;;;;;113.13;46.58;;;128.50;1868.80;;;;;;5061933;28;20045;-62
2022/01/27 07:01:50;;;;;;;105.15;42.38;;;128.50;1920.00;;;;;;5064988;28;20032;-61
2022/01/27 07:04:16;;;;;;;115.18;39.25;;;128.60;1894.40;;;;;;5067226;28;20032;-58
2022/01/27 07:06:42;;;;;;;102.10;39.47;;;128.50;1894.40;;;;;;5074273;28;20073;-59
2022/01/27 07:09:08;;;;;;;87.90;36.33;;;128.50;1920.00;;;;;;5060594;28;20417;-59
2022/01/27 07:11:33;;;;;;;79.05;34.38;;;128.50;1894.40;;;;;;5055290;28;20025;-59
2022/01/27 07:13:59;;;;;;;89.38;37.40;;;128.50;1920.00;;;;;;5060630;28;20122;-59
2022/01/27 07:16:25;;;;;;;76.63;33.22;;;128.60;1894.40;;;;;;5064546;28;20025;-59
2022/01/27 07:18:52;;;;;;;65.68;34.55;;;128.60;1894.40;;;;;;5063892;28;20039;-59
2022/01/27 07:21:19;;;;;;;57.63;30.52;;;128.60;1920.00;;;;;;5065555;28;20025;-59
2022/01/27 07:23:45;;;;;;;53.42;28.92;;;128.70;1843.20;;;;;;5064490;28;20509;-59
2022/01/27 07:26:11;;;;;;;52.17;28.85;;;128.70;1894.40;;;;;;5072244;28;20032;-61
2022/01/27 07:28:37;;;;;;;54.53;30.80;;;128.70;1894.40;;;;;;5074758;28;20025;-61
2022/01/27 07:31:03;;;;;;;53.75;29.55;;;128.70;1894.40;;;;;;5067449;28;20040;-61
2022/01/27 07:33:29;;;;;;;182.93;49.13;;;128.70;1894.40;;;;;;5055084;28;20539;-59
2022/01/27 07:35:55;;;;;;;76.25;32.03;;;153.60;2099.20;;;;;;5054901;28;20387;-59
2022/01/27 07:38:23;;;;;;;74.75;31.90;;;153.60;1945.60;;;;;;5054872;28;20032;-59
2022/01/27 07:40:49;;;;;;;58.42;29.58;;;153.70;1920.00;;;;;;5054829;28;20021;-59
2022/01/27 07:43:15;;;;;;;55.03;29.05;;;153.70;1894.40;;;;;;5054722;28;20166;-59
2022/01/27 07:45:41;;;;;;;51.08;27.70;;;153.70;1894.40;;;;;;5054708;28;20021;-59
2022/01/27 07:48:07;;;;;;;54.25;29.40;;;153.80;1868.80;;;;;;5054766;28;20040;-59
2022/01/27 07:50:33;;;;;;;46.72;27.75;;;153.70;1868.80;;;;;;5054371;28;20037;-59
2022/01/27 07:52:59;;;;;;;52.67;28.73;;;153.80;1868.80;;;;;;5054640;28;20021;-59
2022/01/27 07:55:25;;;;;;;57.63;31.58;;;153.90;1868.80;;;;;;5054544;28;20033;-59
2022/01/27 07:57:51;;;;;;;58.33;31.88;;;153.90;1868.80;;;;;;5054444;28;20134;-59
2022/01/27 08:00:17;;;;;;;61.67;34.80;;;154.00;1817.60;;;;;;5054148;28;20053;-59
2022/01/27 08:02:45;;;;;;;66.72;34.50;;;153.90;1843.20;;;;;;5054406;28;20025;-59
2022/01/27 08:05:11;;;;;;;55.92;31.83;;;154.00;1843.20;;;;;;5054445;28;20426;-59
2022/01/27 08:07:37;;;;;;;57.95;32.67;;;154.00;1817.60;;;;;;5053703;28;20041;-59
2022/01/27 08:10:03;;;;;;;58.08;33.30;;;154.10;1817.60;;;;;;5054552;28;20087;-59
2022/01/27 08:12:29;;;;;;;61.80;34.47;;;154.00;1817.60;;;;;;5054261;28;20025;-59
2022/01/27 08:14:55;;;;;;;63.53;33.53;;;154.10;1817.60;;;;;;5054197;28;20031;-59
2022/01/27 08:17:20;;;;;;;75.88;40.70;;;154.10;1817.60;;;;;;5053944;28;20075;-59
2022/01/27 08:19:46;;;;;;;78.07;44.13;;;154.00;1792.00;;;;;;5054006;28;20071;-59
2022/01/27 08:22:12;;;;;;;90.93;49.10;;;153.80;1843.20;;;;;;5054202;28;20029;-59
2022/01/27 08:24:38;;;;;;;77.10;46.92;;;153.80;1766.40;;;;;;5054184;28;20025;-59
2022/01/27 08:27:07;;;;;;;73.68;42.85;;;153.70;1843.20;;;;;;5053977;28;20378;-59
2022/01/27 08:29:38;;;;;;;65.18;37.13;;;153.70;1868.80;;;;;;5053904;28;20116;-59
2022/01/27 08:32:10;;;;;;;75.53;38.22;;;153.70;1843.20;;;;;;5053906;28;20021;-59
2022/01/27 08:34:39;;;;;;;78.80;42.55;;;153.70;1868.80;;;;;;5052283;28;20033;-59
2022/01/27 08:37:08;;;;;;;82.57;44.17;;;153.70;1817.60;;;;;;5053790;28;20021;-59
2022/01/27 08:39:34;;;;;;;81.80;44.40;;;153.80;1843.20;;;;;;5053859;28;20033;-59
2022/01/27 08:42:01;;;;;;;67.03;37.65;;;153.70;1868.80;;;;;;5053719;28;20155;-59
2022/01/27 08:44:27;;;;;;;64.90;37.35;;;153.70;1843.20;;;;;;5053789;28;20044;-59
2022/01/27 08:46:53;;;;;;;80.75;39.67;;;153.70;1894.40;;;;;;5053747;28;20029;-59
2022/01/27 08:49:21;;;;;;;86.60;40.00;;;153.80;1817.60;;;;;;5053804;28;20482;-59
2022/01/27 08:51:47;;;;;;;84.22;39.72;;;153.80;1843.20;;;;;;5053813;28;20017;-59
2022/01/27 08:54:13;;;;;;;82.90;38.45;;;153.80;1868.80;;;;;;5053560;28;20493;-59
2022/01/27 08:56:39;;;;;;;73.25;37.55;;;153.70;1817.60;;;;;;5053438;28;20017;-59
2022/01/27 08:59:05;;;;;;;68.63;36.55;;;153.70;1868.80;;;;;;5052952;28;20071;-59
2022/01/27 09:01:31;;;;;;;69.38;36.65;;;153.70;1817.60;;;;;;5053526;28;20479;-59
2022/01/27 09:03:57;;;;;;;82.60;43.05;;;153.70;1868.80;;;;;;5053755;28;20029;-59
2022/01/27 09:06:23;;;;;;;97.70;45.72;;;153.70;1868.80;;;;;;5053660;28;20080;-59
2022/01/27 09:08:50;;;;;;;89.97;44.85;;;153.70;1817.60;;;;;;5053584;28;20459;-59
2022/01/27 09:11:17;;;;;;;82.25;41.90;;;153.70;1868.80;;;;;;5053175;28;20045;-59
2022/01/27 09:13:43;;;;;;;81.18;41.45;;;153.80;1868.80;;;;;;5053378;28;20475;-59
2022/01/27 09:16:10;;;;;;;77.47;39.38;;;153.70;1868.80;;;;;;5053307;28;20467;-59
2022/01/27 09:18:36;;;;;;;79.18;39.92;;;153.70;1894.40;;;;;;5054676;28;20032;-59
2022/01/27 09:21:08;;;;;;;73.82;41.65;;;153.70;1868.80;;;;;;5057453;28;20032;-59
2022/01/27 09:23:35;;;;;;;82.53;44.22;;;153.70;1894.40;;;;;;5057638;28;20106;-59
2022/01/27 09:26:05;;;;;;;67.43;38.22;;;153.80;1894.40;;;;;;5057335;28;20151;-59
2022/01/27 09:28:31;;;;;;;74.38;39.88;;;153.70;1843.20;;;;;;5057169;28;20096;-59
2022/01/27 09:30:57;;;;;;;74.63;40.08;;;153.90;1894.40;;;;;;5055801;28;20132;-59
2022/01/27 09:33:23;;;;;;;79.65;39.95;;;153.90;1843.20;;;;;;5057367;28;20063;-59
2022/01/27 09:35:49;;;;;;;93.43;40.97;;;154.10;1868.80;;;;;;5057961;28;20392;-59
2022/01/27 09:38:18;;;;;;;92.15;41.33;;;154.10;1868.80;;;;;;5057299;28;20053;-59
2022/01/27 09:40:47;;;;;;;91.82;44.08;;;154.20;1817.60;;;;;;5057282;28;20037;-59
2022/01/27 09:43:14;;;;;;;85.13;42.45;;;154.30;1843.20;;;;;;5057229;28;20036;-59
2022/01/27 09:45:40;;;;;;;97.07;46.60;;;154.40;1817.60;;;;;;5057525;28;20115;-59
2022/01/27 09:48:15;;;;;;;95.40;50.38;;;154.50;1817.60;;;;;;5057205;28;20390;-59
2022/01/27 09:53:35;;;;;;;85.47;46.58;;;179.20;1792.00;;;;;;5055319;28;20574;-59
2022/01/27 09:56:01;;;;;;;78.88;45.13;;;179.20;1817.60;;;;;;5054860;28;20068;-59
2022/01/27 09:58:27;;;;;;;77.90;46.22;;;179.20;1792.00;;;;;;5054637;28;20029;-59
2022/01/27 10:00:53;;;;;;;81.85;42.75;;;179.20;1817.60;;;;;;5054596;28;20036;-59
2022/01/27 10:03:19;;;;;;;77.00;39.83;;;179.30;1817.60;;;;;;5054885;28;20029;-59
2022/01/27 10:05:46;;;;;;;68.72;39.13;;;179.20;1792.00;;;;;;5054229;28;20368;-59
2022/01/27 10:08:18;;;;;;;66.93;37.90;;;179.30;1817.60;;;;;;5054347;28;20056;-59
2022/01/27 10:10:53;;;;;;;64.70;36.97;;;179.40;1792.00;;;;;;5054871;28;20049;-59
2022/01/27 10:13:35;;;;;;;69.30;38.88;;;179.40;1817.60;;;;;;5054447;28;20036;-59
2022/01/27 10:16:01;;;;;;;68.15;37.95;;;179.50;1792.00;;;;;;5054778;28;20033;-59
2022/01/27 10:18:34;;;;;;;67.30;39.38;;;179.50;1792.00;;;;;;5054496;28;20043;-59
2022/01/27 10:21:01;;;;;;;68.20;39.78;;;179.50;1792.00;;;;;;5053985;28;20032;-59
2022/01/27 10:23:32;;;;;;;66.40;39.50;;;179.60;1766.40;;;;;;5054199;28;20063;-59
2022/01/27 10:26:13;;;;;;;62.30;36.90;;;179.70;1792.00;;;;;;5053997;28;20494;-59
2022/01/27 10:28:47;;;;;;;68.88;39.83;;;179.80;1766.40;;;;;;5054168;28;20498;-59
2022/01/27 10:31:20;;;;;;;65.20;38.42;;;179.70;1792.00;;;;;;5054870;28;20399;-59
2022/01/27 10:33:49;;;;;;;63.63;37.70;;;179.80;1792.00;;;;;;5056073;28;20055;-59
2022/01/27 10:36:24;;;;;;;62.95;38.85;;;179.80;1740.80;;;;;;5056205;28;20029;-59
2022/01/27 10:38:56;;;;;;;72.30;39.47;;;179.90;1766.40;;;;;;5056157;28;20027;-59
2022/01/27 10:41:32;;;;;;;74.25;38.13;;;179.90;1766.40;;;;;;5055920;28;20068;-59
2022/01/27 10:44:11;;;;;;;79.63;42.60;;;180.00;1766.40;;;;;;5056193;28;20025;-59
2022/01/27 10:46:43;;;;;;;72.65;41.85;;;180.10;1740.80;;;;;;5055841;28;20028;-60
2022/01/27 10:49:13;;;;;;;75.90;39.42;;;180.10;1740.80;;;;;;5056133;28;20070;-59
2022/01/27 10:51:49;;;;;;;64.97;39.08;;;204.80;1740.80;;;;;;5055974;28;20052;-59
2022/01/27 10:54:21;;;;;;;57.38;34.63;;;204.80;1715.20;;;;;;5055883;28;20159;-59
2022/01/27 10:56:47;;;;;;;51.67;32.33;;;204.90;1715.20;;;;;;5055592;28;20158;-59
2022/01/27 10:59:16;;;;;;;56.03;31.95;;;205.00;1715.20;;;;;;5055531;28;20382;-59
2022/01/27 11:01:45;;;;;;;68.13;36.85;;;205.00;1689.60;;;;;;5055511;28;20417;-59
2022/01/27 11:04:12;;;;;;;63.72;36.35;;;205.10;1689.60;;;;;;5055495;28;20525;-59
2022/01/27 11:06:57;;;;;;;67.97;39.70;;;205.10;1689.60;;;;;;5055671;28;20032;-59
2022/01/27 11:09:24;;;;;;;67.63;37.15;;;205.00;1766.40;;;;;;5055690;28;20033;-59
2022/01/27 11:11:53;;;;;;;70.30;37.65;;;205.10;1715.20;;;;;;5055715;28;20360;-59
2022/01/27 11:14:19;;;;;;;66.00;38.13;;;205.20;1715.20;;;;;;5055539;28;20025;-59
2022/01/27 11:16:49;;;;;;;68.30;38.38;;;205.20;1740.80;;;;;;5055277;28;20033;-59
2022/01/27 11:19:36;;;;;;;66.95;37.05;;;205.20;1740.80;;;;;;5055224;28;20018;-59
2022/01/27 11:27:23;;;;;;;54.80;30.23;;;205.40;1715.20;;;;;;5055259;28;20025;-60
2022/01/27 11:29:57;;;;;;;49.72;28.88;;;205.40;1689.60;;;;;;5055490;28;20476;-59
2022/01/27 11:32:34;;;;;;;60.13;32.25;;;205.40;1689.60;;;;;;5054861;28;20032;-63
2022/01/27 11:35:00;;;;;;;68.32;32.42;;;205.50;1689.60;;;;;;5055098;28;20033;-68
2022/01/27 11:37:34;;;;;;;108.18;48.55;;;230.60;1920.00;;;;;;5069798;28;20501;-62
2022/01/27 11:40:06;;;;;;;184.38;73.40;;;230.90;1920.00;;;;;;5075171;28;20413;-71
2022/01/27 11:42:35;;;;;;;222.55;115.60;;;231.30;1817.60;;;;;;5073704;28;20119;-60
2022/01/27 11:45:28;;;;;;;120.60;82.85;;;256.20;1715.20;;;;;;5074674;28;20028;-60
2022/01/27 11:47:57;;;;;;;127.53;95.50;;;256.00;1561.60;;;;;;5074650;28;20386;-61
2022/01/27 11:50:36;;;;;;;70.50;45.40;;;231.30;1536.00;;;;;;5074577;28;20466;-64
2022/01/27 11:53:26;;;;;;;59.35;35.13;;;231.10;1561.60;;;;;;5074731;28;20107;-61
2022/01/27 11:55:52;;;;;;;53.85;32.40;;;231.00;1561.60;;;;;;5074291;28;20054;-60
2022/01/27 11:58:23;;;;;;;67.70;38.47;;;230.90;1561.60;;;;;;5073980;28;20017;-62
2022/01/27 12:01:07;;;;;;;90.07;52.60;;;230.80;1561.60;;;;;;5074376;28;20031;-60
2022/01/27 12:03:34;;;;;;;86.38;42.50;;;230.70;1561.60;;;;;;5058335;28;20056;-61
2022/01/27 12:06:16;;;;;;;84.68;47.08;;;230.60;1561.60;;;;;;5054697;28;20058;-61
2022/01/27 12:08:42;;;;;;;95.40;52.92;;;230.60;1561.60;;;;;;5054492;28;20374;-62
2022/01/27 12:11:10;;;;;;;90.90;54.65;;;230.60;1587.20;;;;;;5061044;28;20036;-61
2022/01/27 12:13:46;;;;;;;99.88;56.08;;;230.60;1561.60;;;;;;5060103;28;20017;-60
2022/01/27 12:19:02;;;;;;;59.60;35.10;;;230.50;1536.00;;;;;;5063528;28;20026;-61
2022/01/27 12:21:32;;;;;;;55.42;34.67;;;230.50;1561.60;;;;;;5058368;28;20056;-62
2022/01/27 12:24:14;;;;;;;62.22;34.78;;;230.40;1561.60;;;;;;5054806;28;20063;-62
2022/01/27 12:27:00;;;;;;;118.75;64.95;;;230.40;1587.20;;;;;;5060319;28;20067;-62
2022/01/27 12:29:41;;;;;;;346.42;173.38;;;230.50;1561.60;;;;;;5062078;28;20059;-60
2022/01/27 12:32:22;;;;;;;178.20;86.22;;;230.50;1561.60;;;;;;5062425;28;20032;-62
2022/01/27 12:34:56;;;;;;;106.60;48.88;;;230.40;1587.20;;;;;;5062747;28;20043;-61
2022/01/27 12:37:32;;;;;;;246.25;101.22;;;205.70;1561.60;;;;;;5060758;28;20032;-60
2022/01/27 12:40:00;;;;;;;323.13;126.38;;;205.70;1561.60;;;;;;5060055;28;20025;-60
2022/01/27 12:42:32;;;;;;;482.80;202.88;;;205.70;1561.60;;;;;;5063121;28;20025;-61
2022/01/27 12:45:11;;;;;;;366.77;150.43;;;205.70;1561.60;;;;;;5060052;28;20041;-60
2022/01/27 12:47:42;;;;;;;235.10;120.20;;;205.70;1561.60;;;;;;5062115;28;20454;-60